createdAt,value
2023-02-23T00:02:20.451Z,11.07
2023-02-23T00:04:48.605Z,12.63
2023-02-23T00:07:19.924Z,12.87
2023-02-23T00:09:48.181Z,16.43
2023-02-23T00:12:17.207Z,15.20
2023-02-23T00:14:45.657Z,11.00
2023-02-23T00:17:17.620Z,13.87
2023-02-23T00:19:49.274Z,10.13
2023-02-23T00:22:17.504Z,13.30
2023-02-23T00:24:47.786Z,11.63
2023-02-23T00:27:20.018Z,10.47
2023-02-23T00:29:49.647Z,10.40
2023-02-23T00:32:20.750Z,10.20
2023-02-23T00:34:50.457Z,9.53
2023-02-23T00:37:19.339Z,9.73
2023-02-23T00:39:47.452Z,10.37
2023-02-23T00:42:15.993Z,10.53
2023-02-23T00:44:44.248Z,12.13
2023-02-23T00:47:12.382Z,12.27
2023-02-23T00:49:44.930Z,12.53
2023-02-23T00:52:14.743Z,11.27
2023-02-23T00:54:43.330Z,13.97
2023-02-23T00:57:11.471Z,10.30
2023-02-23T00:59:39.689Z,9.90
2023-02-23T01:02:07.959Z,12.07
2023-02-23T01:04:36.193Z,9.90
2023-02-23T01:07:06.622Z,9.13
2023-02-23T01:09:34.908Z,10.03
2023-02-23T01:12:07.313Z,8.20
2023-02-23T01:14:37.590Z,8.43
2023-02-23T01:17:05.893Z,12.97
2023-02-23T01:19:34.872Z,10.73
2023-02-23T01:22:03.374Z,17.50
2023-02-23T01:24:33.004Z,11.43
2023-02-23T01:27:01.160Z,11.23
2023-02-23T01:29:29.343Z,12.93
2023-02-23T01:31:57.564Z,12.07
2023-02-23T01:34:25.753Z,17.47
2023-02-23T01:36:53.899Z,11.40
2023-02-23T01:39:23.177Z,11.87
2023-02-23T01:41:54.253Z,10.67
2023-02-23T01:44:59.545Z,12.77
2023-02-23T01:47:27.829Z,12.60
2023-02-23T01:49:56.027Z,15.80
2023-02-23T01:52:24.212Z,13.23
2023-02-23T01:54:55.905Z,12.33
2023-02-23T01:57:27.074Z,13.90
2023-02-23T01:59:56.058Z,15.10
2023-02-23T02:02:33.352Z,12.50
2023-02-23T02:05:03.963Z,11.77
2023-02-23T02:07:35.209Z,12.07
2023-02-23T02:10:20.898Z,8.90
2023-02-23T02:12:53.545Z,9.83
2023-02-23T02:15:26.079Z,12.73
2023-02-23T02:18:09.209Z,9.37
2023-02-23T02:21:06.104Z,10.47
2023-02-23T02:24:08.191Z,11.17
2023-02-23T02:26:47.498Z,11.60
2023-02-23T02:29:52.726Z,10.10
2023-02-23T02:32:42.688Z,11.37
2023-02-23T02:35:47.888Z,10.20
2023-02-23T02:38:27.206Z,9.83
2023-02-23T02:41:04.121Z,11.53
2023-02-23T02:43:42.962Z,11.03
2023-02-23T02:46:17.502Z,11.47
2023-02-23T02:48:51.612Z,10.87
2023-02-23T02:51:25.464Z,10.80
2023-02-23T02:54:06.849Z,11.03
2023-02-23T02:56:40.381Z,12.00
2023-02-23T02:59:29.127Z,12.50
2023-02-23T03:02:15.193Z,15.07
2023-02-23T03:05:00.829Z,12.73
2023-02-23T03:07:52.793Z,12.70
2023-02-23T03:10:51.519Z,12.83
2023-02-23T03:13:45.306Z,14.07
2023-02-23T03:16:41.353Z,13.73
2023-02-23T03:19:34.447Z,14.50
2023-02-23T03:22:29.703Z,14.70
2023-02-23T03:25:20.168Z,14.57
2023-02-23T03:28:12.907Z,15.20
2023-02-23T03:31:07.658Z,13.07
2023-02-23T03:33:59.840Z,13.47
2023-02-23T03:36:48.990Z,13.20
2023-02-23T03:39:40.164Z,15.50
2023-02-23T03:42:31.363Z,13.67
2023-02-23T03:45:23.233Z,18.43
2023-02-23T03:48:12.212Z,15.70
2023-02-23T03:51:00.775Z,17.70
2023-02-23T03:53:51.207Z,14.10
2023-02-23T03:56:39.573Z,20.53
2023-02-23T03:59:26.631Z,20.13
2023-02-23T04:02:15.346Z,14.33
2023-02-23T04:05:03.041Z,16.13
2023-02-23T04:07:49.534Z,13.40
2023-02-23T04:10:35.604Z,12.73
2023-02-23T04:13:16.469Z,12.57
2023-02-23T04:15:50.949Z,11.13
2023-02-23T04:18:24.917Z,14.60
2023-02-23T04:20:53.355Z,12.37
2023-02-23T04:23:22.874Z,11.20
2023-02-23T04:25:51.292Z,12.57
2023-02-23T04:28:19.554Z,10.90
2023-02-23T04:30:47.757Z,12.97
2023-02-23T04:33:16.256Z,11.70
2023-02-23T04:35:46.136Z,13.97
2023-02-23T04:38:14.291Z,13.77
2023-02-23T04:40:42.414Z,13.27
2023-02-23T04:43:12.945Z,13.67
2023-02-23T04:45:41.221Z,15.17
2023-02-23T04:48:09.631Z,11.97
2023-02-23T04:50:37.766Z,12.80
2023-02-23T04:53:10.277Z,16.57
2023-02-23T04:55:38.724Z,13.30
2023-02-23T04:58:08.140Z,14.93
2023-02-23T05:00:39.401Z,14.57
2023-02-23T05:03:07.674Z,16.93
2023-02-23T05:05:35.825Z,15.50
2023-02-23T05:08:03.984Z,22.93
2023-02-23T05:10:33.578Z,21.77
2023-02-23T05:13:02.237Z,20.47
2023-02-23T05:15:32.056Z,17.57
2023-02-23T05:18:07.493Z,15.17
2023-02-23T05:20:35.629Z,14.10
2023-02-23T05:23:03.945Z,12.27
2023-02-23T05:25:35.787Z,15.23
2023-02-23T05:28:05.431Z,16.20
2023-02-23T05:30:34.298Z,15.10
2023-02-23T05:33:02.497Z,16.37
2023-02-23T05:35:31.787Z,13.20
2023-02-23T05:37:59.892Z,14.97
2023-02-23T05:40:28.086Z,13.43
2023-02-23T05:43:01.488Z,16.13
2023-02-23T05:45:29.633Z,15.60
2023-02-23T05:47:57.965Z,15.20
2023-02-23T05:50:26.981Z,15.90
2023-02-23T05:52:55.144Z,13.43
2023-02-23T05:55:23.277Z,20.43
2023-02-23T05:57:51.845Z,15.93
2023-02-23T06:00:22.224Z,16.07
2023-02-23T06:02:52.468Z,15.93
2023-02-23T06:05:20.683Z,16.23
2023-02-23T06:07:48.904Z,15.43
2023-02-23T06:10:17.216Z,15.23
2023-02-23T06:12:46.708Z,17.43
2023-02-23T06:15:14.853Z,14.23
2023-02-23T06:17:44.336Z,17.40
2023-02-23T06:20:14.777Z,20.00
2023-02-23T06:22:43.371Z,16.63
2023-02-23T06:25:13.482Z,16.57
2023-02-23T06:27:42.328Z,15.83
2023-02-23T06:30:14.402Z,16.00
2023-02-23T06:32:44.017Z,15.67
2023-02-23T06:35:12.259Z,21.57
2023-02-23T06:37:41.374Z,14.67
2023-02-23T06:40:10.847Z,17.97
2023-02-23T06:42:39.007Z,20.87
2023-02-23T06:45:08.039Z,19.23
2023-02-23T06:47:36.347Z,15.97
2023-02-23T06:50:06.871Z,15.97
2023-02-23T06:52:35.042Z,15.67
2023-02-23T06:55:03.265Z,15.97
2023-02-23T06:57:31.418Z,19.50
2023-02-23T07:00:01.795Z,16.97
2023-02-23T07:02:30.130Z,17.87
2023-02-23T07:04:58.699Z,16.77
2023-02-23T07:07:28.429Z,14.23
2023-02-23T07:09:56.824Z,14.80
2023-02-23T07:12:25.143Z,14.27
2023-02-23T07:14:53.541Z,14.07
2023-02-23T07:17:21.832Z,16.63
2023-02-23T07:19:50.119Z,16.43
2023-02-23T07:22:18.424Z,18.77
2023-02-23T07:24:48.326Z,14.13
2023-02-23T07:27:16.541Z,18.60
2023-02-23T07:29:45.029Z,14.60
2023-02-23T07:32:13.396Z,15.83
2023-02-23T07:34:41.720Z,15.17
2023-02-23T07:37:10.151Z,13.50
2023-02-23T07:39:38.449Z,17.53
2023-02-23T07:42:08.214Z,14.33
2023-02-23T07:44:36.628Z,12.40
2023-02-23T07:47:05.010Z,11.97
2023-02-23T07:49:33.465Z,12.47
2023-02-23T07:52:01.718Z,14.20
2023-02-23T07:54:29.952Z,12.57
2023-02-23T07:56:59.600Z,14.70
2023-02-23T07:59:30.961Z,12.80
2023-02-23T08:01:59.919Z,11.00
2023-02-23T08:04:28.157Z,12.17
2023-02-23T08:06:56.343Z,13.50
2023-02-23T08:09:24.520Z,12.27
2023-02-23T08:11:52.795Z,12.33
2023-02-23T08:14:23.632Z,16.67
2023-02-23T08:16:53.296Z,12.63
2023-02-23T08:19:22.851Z,12.10
2023-02-23T08:21:51.121Z,12.00
2023-02-23T08:24:19.392Z,11.93
2023-02-23T08:26:47.530Z,14.37
2023-02-23T08:29:15.688Z,13.33
2023-02-23T08:31:43.903Z,14.30
2023-02-23T08:34:14.872Z,14.93
2023-02-23T08:36:45.718Z,13.50
2023-02-23T08:39:14.505Z,13.60
2023-02-23T08:41:43.215Z,13.30
2023-02-23T08:44:11.355Z,15.87
2023-02-23T08:46:39.487Z,16.03
2023-02-23T08:49:10.717Z,16.93
2023-02-23T08:51:40.860Z,15.13
2023-02-23T08:54:14.264Z,16.13
2023-02-23T08:56:43.039Z,12.87
2023-02-23T08:59:12.265Z,18.63
2023-02-23T09:01:41.036Z,13.40
2023-02-23T09:04:09.363Z,14.53
2023-02-23T09:06:40.961Z,19.77
2023-02-23T09:09:09.124Z,13.23
2023-02-23T09:11:37.477Z,15.20
2023-02-23T09:14:05.625Z,16.97
2023-02-23T09:16:34.030Z,14.77
2023-02-23T09:19:02.779Z,14.27
2023-02-23T09:21:34.323Z,16.43
2023-02-23T09:24:04.050Z,16.23
2023-02-23T09:26:33.363Z,14.57
2023-02-23T09:29:02.931Z,11.83
2023-02-23T09:31:31.159Z,12.93
2023-02-23T09:34:00.371Z,14.90
2023-02-23T09:36:29.553Z,15.10
2023-02-23T09:38:58.512Z,15.53
2023-02-23T09:42:20.689Z,19.83
2023-02-23T09:45:04.453Z,12.27
2023-02-23T09:47:40.610Z,13.80
2023-02-23T09:50:19.042Z,13.73
2023-02-23T09:52:50.342Z,14.13
2023-02-23T09:55:18.915Z,13.47
2023-02-23T09:57:49.221Z,16.33
2023-02-23T10:00:27.804Z,15.93
2023-02-23T10:03:11.728Z,12.40
2023-02-23T10:05:44.992Z,14.00
2023-02-23T10:08:29.836Z,13.53
2023-02-23T10:11:08.741Z,13.70
2023-02-23T10:13:46.460Z,14.67
2023-02-23T10:16:22.985Z,15.73
2023-02-23T10:18:57.407Z,12.07
2023-02-23T10:21:35.261Z,17.47
2023-02-23T10:24:06.730Z,12.77
2023-02-23T10:26:44.095Z,14.00
2023-02-23T10:29:23.596Z,16.30
2023-02-23T10:31:58.584Z,14.23
2023-02-23T10:34:29.086Z,13.73
2023-02-23T10:37:01.684Z,19.13
2023-02-23T10:39:31.875Z,16.47
2023-02-23T10:42:04.044Z,15.77
2023-02-23T10:44:32.605Z,15.60
2023-02-23T10:47:04.320Z,13.50
2023-02-23T10:49:41.439Z,15.67
2023-02-23T10:52:13.613Z,14.20
2023-02-23T10:54:47.741Z,14.43
2023-02-23T10:57:27.864Z,16.80
2023-02-23T11:00:31.088Z,16.47
2023-02-23T11:03:01.838Z,14.00
2023-02-23T11:05:35.735Z,14.73
2023-02-23T11:08:30.423Z,15.47
2023-02-23T11:11:19.099Z,16.57
2023-02-23T11:13:49.251Z,17.47
2023-02-23T11:16:19.704Z,15.37
2023-02-23T11:18:55.430Z,14.57
2023-02-23T11:21:26.875Z,14.47
2023-02-23T11:23:58.553Z,14.03
2023-02-23T11:26:33.988Z,12.13
2023-02-23T11:29:11.089Z,15.17
2023-02-23T11:31:40.880Z,15.40
2023-02-23T11:34:23.762Z,14.23
2023-02-23T11:37:01.666Z,12.60
2023-02-23T11:39:29.819Z,13.33
2023-02-23T11:42:19.214Z,16.27
2023-02-23T11:44:53.178Z,22.03
2023-02-23T11:47:24.016Z,19.27
2023-02-23T11:49:54.487Z,14.93
2023-02-23T11:52:24.899Z,16.73
2023-02-23T11:54:57.300Z,15.10
2023-02-23T11:57:28.937Z,11.70
2023-02-23T11:59:58.246Z,16.73
2023-02-23T12:02:28.127Z,14.67
2023-02-23T12:05:06.423Z,14.73
2023-02-23T12:07:41.962Z,17.87
2023-02-23T12:10:17.529Z,15.90
2023-02-23T12:12:56.994Z,14.60
2023-02-23T12:15:37.316Z,10.30
2023-02-23T12:18:16.132Z,13.17
2023-02-23T12:20:50.880Z,14.23
2023-02-23T12:23:24.647Z,13.13
2023-02-23T12:25:59.664Z,13.60
2023-02-23T12:28:34.993Z,20.27
2023-02-23T12:31:07.788Z,13.10
2023-02-23T12:33:40.288Z,13.83
2023-02-23T12:36:20.458Z,15.53
2023-02-23T12:38:55.602Z,20.67
2023-02-23T12:41:34.901Z,13.73
2023-02-23T12:44:13.370Z,13.60
2023-02-23T12:46:48.934Z,14.90
2023-02-23T12:49:28.298Z,15.47
2023-02-23T12:52:06.778Z,14.13
2023-02-23T12:54:35.315Z,14.60
2023-02-23T12:57:13.962Z,14.40
2023-02-23T13:00:30.474Z,14.53
2023-02-23T13:03:22.222Z,10.40
2023-02-23T13:05:57.767Z,13.70
2023-02-23T13:08:34.645Z,11.73
2023-02-23T13:11:13.539Z,17.27
2023-02-23T13:13:52.137Z,12.00
2023-02-23T13:16:31.787Z,14.67
2023-02-23T13:19:10.731Z,14.97
2023-02-23T13:21:43.061Z,13.57
2023-02-23T13:24:19.689Z,11.43
2023-02-23T13:26:54.823Z,14.97
2023-02-23T13:29:32.896Z,17.43
2023-02-23T13:32:02.555Z,11.90
2023-02-23T13:34:34.629Z,12.80
2023-02-23T13:37:06.749Z,10.93
2023-02-23T13:39:49.203Z,10.77
2023-02-23T13:42:44.311Z,15.77
2023-02-23T13:45:30.180Z,12.97
2023-02-23T13:48:03.863Z,13.53
2023-02-23T13:50:41.958Z,11.63
2023-02-23T13:53:30.072Z,13.97
2023-02-23T13:56:04.397Z,12.70
2023-02-23T13:58:33.835Z,15.20
2023-02-23T14:01:10.651Z,11.07
2023-02-23T14:03:48.204Z,13.27
2023-02-23T14:06:19.454Z,11.93
2023-02-23T14:08:54.410Z,12.17
2023-02-23T14:11:48.910Z,15.80
2023-02-23T14:14:44.910Z,12.27
2023-02-23T14:17:41.754Z,12.30
2023-02-23T14:20:29.508Z,11.23
2023-02-23T14:23:34.402Z,11.63
2023-02-23T14:26:35.039Z,14.67
2023-02-23T14:29:33.043Z,16.17
2023-02-23T14:32:04.865Z,11.83
2023-02-23T14:34:51.588Z,12.23
2023-02-23T14:37:32.488Z,11.27
2023-02-23T14:40:12.651Z,10.47
2023-02-23T14:42:42.381Z,11.17
2023-02-23T14:45:25.761Z,11.07
2023-02-23T14:47:59.925Z,12.07
2023-02-23T14:50:30.849Z,15.57
2023-02-23T14:53:01.347Z,12.83
2023-02-23T14:55:32.638Z,16.43
2023-02-23T14:58:01.481Z,13.77
2023-02-23T15:00:34.066Z,15.97
2023-02-23T15:03:03.654Z,13.63
2023-02-23T15:05:34.150Z,12.93
2023-02-23T15:08:04.672Z,15.70
2023-02-23T15:10:36.586Z,14.03
2023-02-23T15:13:11.661Z,17.17
2023-02-23T15:15:46.206Z,18.50
2023-02-23T15:18:23.214Z,16.23
2023-02-23T15:20:52.015Z,13.77
2023-02-23T15:23:21.700Z,15.83
2023-02-23T15:25:51.301Z,16.47
2023-02-23T15:28:25.322Z,13.80
2023-02-23T15:30:57.557Z,14.80
2023-02-23T15:33:28.371Z,21.40
2023-02-23T15:36:01.487Z,16.77
2023-02-23T15:38:43.972Z,16.33
2023-02-23T15:41:20.347Z,16.27
2023-02-23T15:43:48.885Z,16.53
2023-02-23T15:46:24.595Z,17.70
2023-02-23T15:48:54.859Z,25.80
2023-02-23T15:51:32.232Z,17.17
2023-02-23T15:54:01.637Z,19.83
2023-02-23T15:56:31.807Z,16.70
2023-02-23T15:59:04.852Z,18.43
2023-02-23T16:01:34.938Z,14.80
2023-02-23T16:04:07.889Z,15.93
2023-02-23T16:06:38.127Z,19.20
2023-02-23T16:09:21.815Z,17.17
2023-02-23T16:11:52.903Z,15.33
2023-02-23T16:14:23.576Z,21.20
2023-02-23T16:17:09.859Z,20.37
2023-02-23T16:19:41.597Z,27.00
2023-02-23T16:22:19.654Z,24.03
2023-02-23T16:24:54.612Z,21.13
2023-02-23T16:27:24.529Z,25.97
2023-02-23T16:30:00.204Z,22.67
2023-02-23T16:32:37.502Z,23.97
2023-02-23T16:35:17.042Z,25.00
2023-02-23T16:38:03.137Z,22.23
2023-02-23T16:40:31.685Z,24.10
2023-02-23T16:43:00.070Z,22.43
2023-02-23T16:45:29.766Z,28.93
2023-02-23T16:48:03.200Z,22.87
2023-02-23T16:50:33.712Z,22.90
2023-02-23T16:53:03.516Z,20.33
2023-02-23T16:55:37.322Z,25.70
2023-02-23T16:58:08.556Z,24.27
2023-02-23T17:00:36.736Z,20.73
2023-02-23T17:03:06.737Z,26.03
2023-02-23T17:05:35.016Z,27.17
2023-02-23T17:08:03.192Z,33.53
2023-02-23T17:10:33.455Z,30.93
2023-02-23T17:13:05.029Z,34.87
2023-02-23T17:15:36.824Z,34.37
2023-02-23T17:18:06.968Z,32.93
2023-02-23T17:20:35.468Z,32.07
2023-02-23T17:23:04.754Z,30.77
2023-02-23T17:25:33.145Z,31.87
2023-02-23T17:28:01.770Z,29.17
2023-02-23T17:30:30.958Z,35.03
2023-02-23T17:33:00.684Z,35.50
2023-02-23T17:35:33.620Z,31.80
2023-02-23T17:38:02.201Z,33.87
2023-02-23T17:40:31.222Z,29.67
2023-02-23T17:43:01.231Z,34.03
2023-02-23T17:45:30.461Z,31.27
2023-02-23T17:47:59.565Z,31.63
2023-02-23T17:50:29.418Z,26.03
2023-02-23T17:52:57.887Z,30.07
2023-02-23T17:55:26.384Z,28.47
2023-02-23T17:57:54.700Z,29.90
2023-02-23T18:00:25.924Z,25.07
2023-02-23T18:02:54.131Z,24.90
2023-02-23T18:05:22.493Z,25.17
2023-02-23T18:07:52.176Z,30.33
2023-02-23T18:10:25.516Z,24.60
2023-02-23T18:12:54.037Z,25.00
2023-02-23T18:15:22.872Z,25.77
2023-02-23T18:17:54.505Z,23.83
2023-02-23T18:20:23.091Z,25.63
2023-02-23T18:22:52.811Z,24.13
2023-02-23T18:25:22.682Z,28.67
2023-02-23T18:27:54.250Z,31.43
2023-02-23T18:30:24.662Z,28.13
2023-02-23T18:32:56.333Z,25.30
2023-02-23T18:35:24.776Z,30.43
2023-02-23T18:37:54.593Z,29.17
2023-02-23T18:40:23.938Z,28.73
2023-02-23T18:42:52.441Z,32.77
2023-02-23T18:45:20.728Z,26.07
2023-02-23T18:47:49.177Z,26.23
2023-02-23T18:50:19.443Z,30.03
2023-02-23T18:52:48.400Z,32.50
2023-02-23T18:55:18.613Z,27.23
2023-02-23T18:57:49.867Z,29.90
2023-02-23T19:00:20.233Z,30.03
2023-02-23T19:02:48.753Z,32.47
2023-02-23T19:05:20.862Z,31.50
2023-02-23T19:07:50.130Z,34.07
2023-02-23T19:10:20.023Z,31.80
2023-02-23T19:12:48.121Z,28.40
2023-02-23T19:15:16.588Z,35.30
2023-02-23T19:17:46.437Z,34.63
2023-02-23T19:20:18.918Z,33.47
2023-02-23T19:22:47.742Z,31.10
2023-02-23T19:25:17.445Z,35.37
2023-02-23T19:27:47.002Z,35.20
2023-02-23T19:30:15.616Z,34.80
2023-02-23T19:32:44.975Z,25.37
2023-02-23T19:35:19.414Z,32.33
2023-02-23T19:37:49.207Z,36.17
2023-02-23T19:40:20.909Z,32.23
2023-02-23T19:42:53.107Z,32.80
2023-02-23T19:45:24.837Z,34.17
2023-02-23T19:47:53.824Z,36.07
2023-02-23T19:50:22.494Z,33.83
2023-02-23T19:52:50.737Z,28.57
2023-02-23T19:55:20.531Z,31.97
2023-02-23T19:57:50.282Z,36.33
2023-02-23T20:00:19.189Z,34.53
2023-02-23T20:02:54.666Z,30.30
2023-02-23T20:05:25.946Z,34.10
2023-02-23T20:07:57.756Z,32.40
2023-02-23T20:10:29.467Z,36.07
2023-02-23T20:12:59.073Z,36.90
2023-02-23T20:15:27.279Z,38.67
2023-02-23T20:17:55.726Z,35.33
2023-02-23T20:20:25.856Z,37.47
2023-02-23T20:22:56.467Z,41.50
2023-02-23T20:25:29.470Z,35.73
2023-02-23T20:27:59.745Z,38.00
2023-02-23T20:30:28.907Z,44.20
2023-02-23T20:32:59.164Z,39.13
2023-02-23T20:35:27.906Z,39.83
2023-02-23T20:37:56.238Z,38.93
2023-02-23T20:40:28.478Z,35.10
2023-02-23T20:42:58.041Z,41.50
2023-02-23T20:45:27.207Z,40.80
2023-02-23T20:47:57.377Z,39.67
2023-02-23T20:50:28.768Z,38.23
2023-02-23T20:52:59.437Z,39.50
2023-02-23T20:55:29.466Z,39.20
2023-02-23T20:58:00.181Z,39.50
2023-02-23T21:00:31.157Z,39.03
2023-02-23T21:03:01.290Z,42.80
2023-02-23T21:05:43.713Z,37.13
2023-02-23T21:08:12.843Z,38.47
2023-02-23T21:10:41.932Z,39.67
2023-02-23T21:13:12.037Z,43.20
2023-02-23T21:15:41.745Z,40.23
2023-02-23T21:18:11.869Z,39.33
2023-02-23T21:20:40.776Z,41.00
2023-02-23T21:23:09.120Z,42.63
2023-02-23T21:25:38.062Z,42.27
2023-02-23T21:28:10.144Z,40.73
2023-02-23T21:30:40.031Z,42.47
2023-02-23T21:33:08.449Z,40.10
2023-02-23T21:35:38.444Z,41.70
2023-02-23T21:38:08.350Z,43.53
2023-02-23T21:40:42.083Z,38.07
2023-02-23T21:43:13.109Z,40.83
2023-02-23T21:45:46.613Z,41.47
2023-02-23T21:48:15.085Z,46.50
2023-02-23T21:50:43.556Z,42.73
2023-02-23T21:53:14.828Z,41.73
2023-02-23T21:55:43.260Z,45.57
2023-02-23T21:58:12.161Z,39.57
2023-02-23T22:00:40.472Z,48.10
2023-02-23T22:03:10.269Z,44.20
2023-02-23T22:05:38.534Z,44.73
2023-02-23T22:08:06.762Z,48.67
2023-02-23T22:10:34.906Z,47.93
2023-02-23T22:13:03.177Z,47.93
2023-02-23T22:15:31.382Z,53.57
2023-02-23T22:18:00.344Z,45.23
2023-02-23T22:20:30.305Z,48.37
2023-02-23T22:22:58.450Z,47.87
2023-02-23T22:25:26.716Z,45.07
2023-02-23T22:27:54.899Z,50.53
2023-02-23T22:30:23.402Z,53.53
2023-02-23T22:32:51.903Z,55.63
2023-02-23T22:35:20.214Z,47.17
2023-02-23T22:37:49.800Z,51.20
2023-02-23T22:40:18.516Z,56.90
2023-02-23T22:42:49.099Z,53.77
2023-02-23T22:45:17.763Z,50.43
2023-02-23T22:47:45.973Z,45.20
2023-02-23T22:50:18.097Z,46.53
2023-02-23T22:52:46.837Z,46.90
2023-02-23T22:55:16.521Z,47.33
2023-02-23T22:57:46.060Z,48.63
2023-02-23T23:00:17.335Z,50.50
2023-02-23T23:02:45.859Z,48.40
2023-02-23T23:05:14.635Z,47.53
2023-02-23T23:07:46.442Z,47.53
2023-02-23T23:10:17.633Z,48.17
2023-02-23T23:12:46.460Z,51.07
2023-02-23T23:15:17.331Z,49.93
2023-02-23T23:17:48.509Z,43.90
2023-02-23T23:20:19.307Z,49.13
2023-02-23T23:22:49.046Z,48.50
2023-02-23T23:25:23.007Z,50.13
2023-02-23T23:27:53.413Z,50.87
2023-02-23T23:30:25.944Z,52.63
2023-02-23T23:32:54.570Z,53.53
2023-02-23T23:35:23.024Z,51.17
2023-02-23T23:37:52.063Z,48.43
2023-02-23T23:40:24.503Z,54.77
2023-02-23T23:42:53.220Z,54.63
2023-02-23T23:45:24.310Z,53.43
2023-02-23T23:47:52.699Z,58.37
2023-02-23T23:50:26.670Z,61.27
2023-02-23T23:52:55.468Z,69.77
2023-02-23T23:55:25.023Z,65.27
2023-02-23T23:57:53.267Z,64.03
